Time;durP1;ratioP1;P1;durP2;ratioP2;P2;SDS_P1;SDS_P2;PMS_P1;PMS_P2;Temp;Humidity;BMP_temperature;BMP_pressure;BME280_temperature;BME280_humidity;BME280_pressure;Samples;Min_cycle;Max_cycle;Signal;HPM_P1;HPM_P2
2024/03/06 00:01:45;;;;;;;2.35;1.27;;;;;;;;;;5053953;28;20029;-60
2024/03/06 00:04:11;;;;;;;3.40;1.20;;;;;;;;;;5053953;28;20071;-56
2024/03/06 00:06:37;;;;;;;2.75;1.50;;;;;;;;;;5053560;28;20037;-57
2024/03/06 00:09:03;;;;;;;2.13;1.15;;;;;;;;;;5054255;28;20024;-57
2024/03/06 00:11:29;;;;;;;2.72;1.27;;;;;;;;;;5054355;28;20016;-57
2024/03/06 00:13:55;;;;;;;1.98;1.10;;;;;;;;;;5053811;28;20047;-57
2024/03/06 00:16:21;;;;;;;5.22;1.23;;;;;;;;;;5053887;28;20029;-56
2024/03/06 00:18:47;;;;;;;2.03;1.23;;;;;;;;;;5054596;28;20031;-57
2024/03/06 00:21:13;;;;;;;4.40;1.70;;;;;;;;;;5054268;28;20107;-57
2024/03/06 00:23:39;;;;;;;3.85;1.33;;;;;;;;;;5053965;28;20078;-57
2024/03/06 00:26:05;;;;;;;2.47;1.20;;;;;;;;;;5054157;28;20037;-57
2024/03/06 00:28:31;;;;;;;4.75;1.35;;;;;;;;;;5053576;28;20083;-57
2024/03/06 00:30:57;;;;;;;4.93;1.23;;;;;;;;;;5054439;28;20367;-56
2024/03/06 00:33:23;;;;;;;2.80;1.48;;;;;;;;;;5054368;28;20477;-57
2024/03/06 00:35:49;;;;;;;6.88;1.77;;;;;;;;;;5054112;28;20029;-57
2024/03/06 00:38:16;;;;;;;3.25;1.60;;;;;;;;;;5053859;28;20025;-57
2024/03/06 00:40:42;;;;;;;3.33;1.90;;;;;;;;;;5053512;28;20036;-57
2024/03/06 00:43:08;;;;;;;4.50;1.63;;;;;;;;;;5053795;28;20021;-56
2024/03/06 00:45:34;;;;;;;2.05;1.30;;;;;;;;;;5053442;28;20063;-57
2024/03/06 00:48:00;;;;;;;4.25;1.73;;;;;;;;;;5057222;28;20033;-56
2024/03/06 00:50:26;;;;;;;6.60;1.55;;;;;;;;;;5057605;28;20091;-57
2024/03/06 00:52:52;;;;;;;3.63;2.22;;;;;;;;;;5058113;28;20031;-57
2024/03/06 00:55:18;;;;;;;2.42;1.58;;;;;;;;;;5057493;28;20443;-56
2024/03/06 00:57:44;;;;;;;3.83;1.90;;;;;;;;;;5057966;28;20406;-57
2024/03/06 01:00:10;;;;;;;4.85;2.38;;;;;;;;;;5058210;28;20347;-57
2024/03/06 01:02:40;;;;;;;2.70;1.67;;;;;;;;;;5057381;28;20378;-57
2024/03/06 01:05:06;;;;;;;2.53;1.60;;;;;;;;;;5057479;28;20036;-57
2024/03/06 01:07:33;;;;;;;3.92;1.65;;;;;;;;;;5057281;28;20146;-60
2024/03/06 01:09:59;;;;;;;3.03;1.70;;;;;;;;;;5057617;28;20021;-56
2024/03/06 01:12:25;;;;;;;2.00;1.38;;;;;;;;;;5057291;28;20021;-57
2024/03/06 01:14:52;;;;;;;2.60;1.75;;;;;;;;;;5057179;28;20063;-57
2024/03/06 01:17:18;;;;;;;2.78;1.50;;;;;;;;;;5057923;28;20533;-57
2024/03/06 01:19:43;;;;;;;2.78;1.77;;;;;;;;;;5057116;28;20366;-57
2024/03/06 01:22:10;;;;;;;3.35;1.70;;;;;;;;;;5057094;28;20028;-57
2024/03/06 01:24:36;;;;;;;5.32;2.15;;;;;;;;;;5057135;28;20108;-58
2024/03/06 01:27:02;;;;;;;2.60;1.35;;;;;;;;;;5057523;28;20100;-57
2024/03/06 01:29:29;;;;;;;3.67;2.25;;;;;;;;;;5056557;28;20056;-57
2024/03/06 01:31:55;;;;;;;2.97;2.20;;;;;;;;;;5056623;28;20033;-56
2024/03/06 01:34:22;;;;;;;2.40;1.73;;;;;;;;;;5057089;28;20025;-57
2024/03/06 01:36:47;;;;;;;2.50;1.70;;;;;;;;;;5057332;28;20366;-57
2024/03/06 01:39:13;;;;;;;8.15;2.03;;;;;;;;;;5056791;28;20029;-57
2024/03/06 01:41:49;;;;;;;3.25;2.05;;;;;;;;;;5057178;28;20124;-56
2024/03/06 01:44:16;;;;;;;3.65;1.65;;;;;;;;;;5056881;28;20025;-56
2024/03/06 01:46:42;;;;;;;5.47;2.28;;;;;;;;;;5057020;28;20036;-57
2024/03/06 01:49:08;;;;;;;3.67;1.95;;;;;;;;;;5057064;28;20382;-55
2024/03/06 01:51:34;;;;;;;4.53;1.73;;;;;;;;;;5056221;28;20427;-57
2024/03/06 01:54:03;;;;;;;4.18;2.25;;;;;;;;;;5056171;28;20107;-57
2024/03/06 01:56:30;;;;;;;3.92;1.58;;;;;;;;;;5056451;28;20048;-57
2024/03/06 01:58:56;;;;;;;3.30;1.95;;;;;;;;;;5056560;28;20036;-57
2024/03/06 02:01:22;;;;;;;3.28;2.10;;;;;;;;;;5056341;28;20087;-57
2024/03/06 02:03:48;;;;;;;4.70;2.17;;;;;;;;;;5056782;28;20028;-57
2024/03/06 02:06:19;;;;;;;3.60;2.03;;;;;;;;;;5056935;28;20033;-52
2024/03/06 02:08:45;;;;;;;2.95;1.85;;;;;;;;;;5056245;28;20035;-57
2024/03/06 02:11:11;;;;;;;3.92;2.15;;;;;;;;;;5056086;28;20104;-57
2024/03/06 02:13:37;;;;;;;3.47;2.30;;;;;;;;;;5056818;28;20029;-57
2024/03/06 02:16:03;;;;;;;3.50;2.10;;;;;;;;;;5056092;28;20074;-57
2024/03/06 02:18:29;;;;;;;4.47;2.17;;;;;;;;;;5055949;28;20141;-57
2024/03/06 02:20:55;;;;;;;7.18;2.30;;;;;;;;;;5055910;28;20025;-57
2024/03/06 02:23:22;;;;;;;6.45;2.58;;;;;;;;;;5055901;28;20033;-57
2024/03/06 02:25:48;;;;;;;3.25;2.22;;;;;;;;;;5055773;28;20033;-56
2024/03/06 02:28:14;;;;;;;5.00;2.47;;;;;;;;;;5055787;28;20116;-56
2024/03/06 02:30:40;;;;;;;3.28;2.22;;;;;;;;;;5055896;28;20021;-57
2024/03/06 02:33:07;;;;;;;2.85;2.08;;;;;;;;;;5056166;28;20025;-57
2024/03/06 02:35:33;;;;;;;3.40;2.05;;;;;;;;;;5055663;28;20033;-57
2024/03/06 02:38:00;;;;;;;3.55;2.33;;;;;;;;;;5056386;28;20024;-57
2024/03/06 02:40:26;;;;;;;4.93;1.90;;;;;;;;;;5055565;28;20032;-57
2024/03/06 02:42:52;;;;;;;3.13;2.10;;;;;;;;;;5055512;28;20086;-56
2024/03/06 02:45:18;;;;;;;4.18;2.22;;;;;;;;;;5055417;28;20037;-56
2024/03/06 02:47:45;;;;;;;6.20;2.58;;;;;;;;;;5055421;28;20430;-57
2024/03/06 02:50:11;;;;;;;3.78;2.55;;;;;;;;;;5055477;28;20021;-56
2024/03/06 02:52:36;;;;;;;3.40;2.42;;;;;;;;;;5055777;28;20443;-56
2024/03/06 02:55:03;;;;;;;3.00;2.10;;;;;;;;;;5055271;28;20040;-57
2024/03/06 02:57:29;;;;;;;3.10;1.75;;;;;;;;;;5055335;28;20051;-57
2024/03/06 02:59:58;;;;;;;6.75;2.60;;;;;;;;;;5056012;28;20056;-57
2024/03/06 03:02:24;;;;;;;3.55;2.42;;;;;;;;;;5055670;28;20074;-57
2024/03/06 03:04:51;;;;;;;3.47;2.78;;;;;;;;;;5055052;28;20029;-57
2024/03/06 03:07:18;;;;;;;4.30;2.40;;;;;;;;;;5055583;28;20090;-57
2024/03/06 03:09:44;;;;;;;4.93;2.70;;;;;;;;;;5055114;28;20025;-57
2024/03/06 03:12:11;;;;;;;6.10;2.83;;;;;;;;;;5055025;28;20448;-57
2024/03/06 03:14:37;;;;;;;5.03;3.05;;;;;;;;;;5055436;28;20029;-57
2024/03/06 03:17:05;;;;;;;4.88;3.70;;;;;;;;;;5054836;28;20025;-57
2024/03/06 03:19:31;;;;;;;4.00;2.90;;;;;;;;;;5054853;28;20479;-56
2024/03/06 03:21:57;;;;;;;3.97;3.17;;;;;;;;;;5055047;28;20059;-57
2024/03/06 03:24:25;;;;;;;5.75;4.20;;;;;;;;;;5054630;28;20051;-57
2024/03/06 03:26:51;;;;;;;4.82;3.58;;;;;;;;;;5055436;28;20123;-57
2024/03/06 03:29:17;;;;;;;3.88;2.88;;;;;;;;;;5054819;28;20056;-56
2024/03/06 03:31:43;;;;;;;5.53;3.92;;;;;;;;;;5055088;28;20024;-56
2024/03/06 03:34:10;;;;;;;4.47;3.30;;;;;;;;;;5054520;28;20032;-55
2024/03/06 03:36:39;;;;;;;6.80;3.67;;;;;;;;;;5054535;28;20029;-56
2024/03/06 03:39:06;;;;;;;6.43;4.15;;;;;;;;;;5054970;28;20029;-57
2024/03/06 03:41:33;;;;;;;3.80;2.42;;;;;;;;;;5054437;28;20024;-57
2024/03/06 03:43:59;;;;;;;4.60;3.08;;;;;;;;;;5055164;28;20351;-57
2024/03/06 03:46:25;;;;;;;4.25;3.40;;;;;;;;;;5053985;28;20029;-57
2024/03/06 03:48:51;;;;;;;6.10;4.18;;;;;;;;;;5055140;28;20032;-57
2024/03/06 03:51:17;;;;;;;6.00;3.67;;;;;;;;;;5054330;28;20036;-57
2024/03/06 03:53:43;;;;;;;6.03;3.55;;;;;;;;;;5054759;28;20451;-57
2024/03/06 03:56:09;;;;;;;5.25;3.85;;;;;;;;;;5054614;28;20055;-56
2024/03/06 03:58:35;;;;;;;5.05;3.50;;;;;;;;;;5054201;28;20394;-56
2024/03/06 04:01:01;;;;;;;4.30;3.20;;;;;;;;;;5054599;28;20025;-57
2024/03/06 04:03:27;;;;;;;6.38;4.18;;;;;;;;;;5054001;28;20116;-56
2024/03/06 04:05:53;;;;;;;5.95;3.72;;;;;;;;;;5053639;28;20037;-55
2024/03/06 04:08:19;;;;;;;6.90;3.67;;;;;;;;;;5054285;28;20025;-57
2024/03/06 04:10:47;;;;;;;5.85;4.00;;;;;;;;;;5053954;28;20036;-55
2024/03/06 04:13:16;;;;;;;6.28;4.28;;;;;;;;;;5053882;28;20048;-57
2024/03/06 04:15:42;;;;;;;10.32;4.45;;;;;;;;;;5053819;28;20080;-56
2024/03/06 04:18:08;;;;;;;6.88;3.58;;;;;;;;;;5054395;28;20033;-56
2024/03/06 04:20:34;;;;;;;5.63;3.90;;;;;;;;;;5053753;28;20032;-57
2024/03/06 04:23:00;;;;;;;6.72;4.20;;;;;;;;;;5053665;28;20518;-57
2024/03/06 04:25:25;;;;;;;5.70;3.55;;;;;;;;;;5053630;28;20167;-57
2024/03/06 04:27:51;;;;;;;4.13;3.53;;;;;;;;;;5053658;28;20021;-57
2024/03/06 04:30:17;;;;;;;4.43;3.15;;;;;;;;;;5053573;28;20028;-56
2024/03/06 04:32:44;;;;;;;4.65;3.25;;;;;;;;;;5052284;28;20025;-55
2024/03/06 04:35:10;;;;;;;7.22;3.92;;;;;;;;;;5054151;28;20037;-56
2024/03/06 04:37:36;;;;;;;7.40;3.45;;;;;;;;;;5053471;28;20031;-55
2024/03/06 04:40:07;;;;;;;6.68;3.35;;;;;;;;;;5053969;28;20112;-56
2024/03/06 04:42:33;;;;;;;4.15;3.58;;;;;;;;;;5054394;28;20393;-56
2024/03/06 04:44:59;;;;;;;4.30;3.45;;;;;;;;;;5053450;28;20124;-56
2024/03/06 04:47:25;;;;;;;9.10;4.10;;;;;;;;;;5054255;28;20052;-57
2024/03/06 04:49:51;;;;;;;6.38;4.05;;;;;;;;;;5054051;28;20025;-57
2024/03/06 04:52:17;;;;;;;7.10;3.88;;;;;;;;;;5053360;28;20059;-57
2024/03/06 04:54:43;;;;;;;8.57;4.38;;;;;;;;;;5053980;28;20053;-57
2024/03/06 04:57:12;;;;;;;4.35;3.78;;;;;;;;;;5053302;28;20136;-56
2024/03/06 04:59:38;;;;;;;12.15;4.97;;;;;;;;;;5053030;28;20467;-57
2024/03/06 05:02:03;;;;;;;5.00;3.70;;;;;;;;;;5053932;28;20029;-55
2024/03/06 05:04:30;;;;;;;5.38;4.03;;;;;;;;;;5053355;28;20091;-57
2024/03/06 05:06:55;;;;;;;7.45;5.22;;;;;;;;;;5053402;28;20037;-57
2024/03/06 05:09:21;;;;;;;7.03;3.60;;;;;;;;;;5053392;28;20025;-57
2024/03/06 05:11:50;;;;;;;5.78;4.05;;;;;;;;;;5053079;28;20045;-56
2024/03/06 05:14:16;;;;;;;6.72;4.13;;;;;;;;;;5054042;28;20033;-57
2024/03/06 05:16:42;;;;;;;7.97;4.32;;;;;;;;;;5054053;28;20021;-57
2024/03/06 05:19:08;;;;;;;6.18;4.10;;;;;;;;;;5053569;28;20481;-53
2024/03/06 05:21:37;;;;;;;5.88;4.57;;;;;;;;;;5052933;28;20056;-56
2024/03/06 05:24:03;;;;;;;10.57;4.80;;;;;;;;;;5052888;28;20433;-57
2024/03/06 05:26:29;;;;;;;6.10;3.58;;;;;;;;;;5053201;28;20029;-57
2024/03/06 05:28:55;;;;;;;7.95;4.53;;;;;;;;;;5053723;28;20025;-56
2024/03/06 05:31:21;;;;;;;6.47;4.88;;;;;;;;;;5053034;28;20049;-57
2024/03/06 05:33:50;;;;;;;7.65;4.63;;;;;;;;;;5056306;28;20071;-57
2024/03/06 05:36:17;;;;;;;7.25;4.00;;;;;;;;;;5056886;28;20037;-55
2024/03/06 05:38:43;;;;;;;8.07;5.00;;;;;;;;;;5057202;28;20079;-57
2024/03/06 05:41:09;;;;;;;5.85;4.35;;;;;;;;;;5056890;28;20055;-57
2024/03/06 05:43:35;;;;;;;5.28;4.28;;;;;;;;;;5056575;28;20108;-57
2024/03/06 05:46:01;;;;;;;5.43;4.28;;;;;;;;;;5056610;28;20060;-57
2024/03/06 05:48:27;;;;;;;8.38;4.13;;;;;;;;;;5056796;28;20463;-57
2024/03/06 05:50:53;;;;;;;7.85;5.25;;;;;;;;;;5056476;28;20028;-57
2024/03/06 05:53:19;;;;;;;6.25;4.65;;;;;;;;;;5056970;28;20036;-56
2024/03/06 05:55:45;;;;;;;8.73;4.18;;;;;;;;;;5056655;28;20182;-58
2024/03/06 05:58:11;;;;;;;5.63;3.70;;;;;;;;;;5057253;28;20079;-57
2024/03/06 06:00:37;;;;;;;5.18;3.95;;;;;;;;;;5056035;28;20029;-57
2024/03/06 06:03:03;;;;;;;5.60;4.95;;;;;;;;;;5056256;28;20055;-57
2024/03/06 06:05:32;;;;;;;5.05;4.15;;;;;;;;;;5056716;28;20029;-57
2024/03/06 06:07:58;;;;;;;8.40;5.32;;;;;;;;;;5056705;28;20509;-57
2024/03/06 06:10:24;;;;;;;7.47;4.90;;;;;;;;;;5055782;28;20033;-57
2024/03/06 06:12:50;;;;;;;9.25;5.30;;;;;;;;;;5056841;28;20456;-56
2024/03/06 06:15:16;;;;;;;8.73;4.95;;;;;;;;;;5056533;28;20529;-57
2024/03/06 06:17:44;;;;;;;7.18;5.03;;;;;;;;;;5055911;28;20422;-57
2024/03/06 06:20:14;;;;;;;7.55;6.20;;;;;;;;;;5056435;28;20052;-59
2024/03/06 06:22:40;;;;;;;10.32;5.70;;;;;;;;;;5056501;28;20031;-55
2024/03/06 06:25:07;;;;;;;6.47;5.05;;;;;;;;;;5055717;28;20119;-54
2024/03/06 06:27:33;;;;;;;6.82;4.53;;;;;;;;;;5055921;28;20024;-57
2024/03/06 06:29:59;;;;;;;9.35;5.10;;;;;;;;;;5055832;28;20105;-57
2024/03/06 06:32:25;;;;;;;5.68;5.15;;;;;;;;;;5055869;28;20074;-57
2024/03/06 06:34:51;;;;;;;7.45;4.35;;;;;;;;;;5055625;28;20032;-58
2024/03/06 06:37:19;;;;;;;6.05;5.20;;;;;;;;;;5055999;28;20032;-58
2024/03/06 06:39:45;;;;;;;8.18;5.10;;;;;;;;;;5055417;28;20029;-57
2024/03/06 06:42:11;;;;;;;5.38;3.88;;;;;;;;;;5056013;28;20025;-58
2024/03/06 06:44:37;;;;;;;9.18;5.15;;;;;;;;;;5054164;28;20032;-57
2024/03/06 06:47:03;;;;;;;14.77;5.28;;;;;;;;;;5055424;28;20032;-55
2024/03/06 06:49:29;;;;;;;7.43;5.70;;;;;;;;;;5055868;28;20025;-58
2024/03/06 06:51:55;;;;;;;7.45;4.85;;;;;;;;;;5055255;28;20032;-57
2024/03/06 06:54:22;;;;;;;8.75;5.80;;;;;;;;;;5054979;28;20029;-57
2024/03/06 06:56:48;;;;;;;7.80;5.97;;;;;;;;;;5055397;28;20049;-56
2024/03/06 06:59:14;;;;;;;9.07;6.00;;;;;;;;;;5054950;28;20104;-59
2024/03/06 07:01:43;;;;;;;7.30;5.57;;;;;;;;;;5055630;28;20029;-57
2024/03/06 07:04:09;;;;;;;6.60;5.47;;;;;;;;;;5055219;28;20442;-58
2024/03/06 07:06:35;;;;;;;9.75;5.60;;;;;;;;;;5055124;28;20121;-57
2024/03/06 07:09:04;;;;;;;6.55;5.70;;;;;;;;;;5055703;28;20041;-57
2024/03/06 07:11:30;;;;;;;5.90;4.97;;;;;;;;;;5055357;28;20036;-55
2024/03/06 07:13:56;;;;;;;7.57;6.15;;;;;;;;;;5055620;28;20075;-57
2024/03/06 07:16:22;;;;;;;6.28;5.63;;;;;;;;;;5055294;28;20442;-57
2024/03/06 07:18:48;;;;;;;7.35;5.57;;;;;;;;;;5055921;28;20033;-57
2024/03/06 07:21:14;;;;;;;6.90;5.82;;;;;;;;;;5055275;28;20040;-58
2024/03/06 07:23:40;;;;;;;6.10;5.18;;;;;;;;;;5054543;28;20025;-58
2024/03/06 07:26:06;;;;;;;11.18;6.82;;;;;;;;;;5055311;28;20041;-58
2024/03/06 07:28:32;;;;;;;8.13;6.35;;;;;;;;;;5055281;28;20036;-57
2024/03/06 07:30:58;;;;;;;8.10;7.07;;;;;;;;;;5054752;28;20025;-57
2024/03/06 07:33:24;;;;;;;7.25;6.18;;;;;;;;;;5054844;28;20037;-56
2024/03/06 07:35:50;;;;;;;9.73;7.43;;;;;;;;;;5054719;28;20087;-56
2024/03/06 07:38:16;;;;;;;8.65;7.18;;;;;;;;;;5054593;28;20422;-54
2024/03/06 07:40:42;;;;;;;16.90;7.70;;;;;;;;;;5054610;28;20028;-58
2024/03/06 07:43:08;;;;;;;12.32;7.80;;;;;;;;;;5054490;28;20029;-56
2024/03/06 07:45:34;;;;;;;10.73;7.45;;;;;;;;;;5054068;28;20029;-58
2024/03/06 07:48:00;;;;;;;8.68;7.28;;;;;;;;;;5054379;28;20529;-56
2024/03/06 07:50:27;;;;;;;8.25;7.30;;;;;;;;;;5054330;28;20021;-58
2024/03/06 07:52:54;;;;;;;13.75;7.43;;;;;;;;;;5054231;28;20036;-58
2024/03/06 07:55:21;;;;;;;9.35;7.38;;;;;;;;;;5053962;28;20112;-58
2024/03/06 07:57:47;;;;;;;11.10;6.72;;;;;;;;;;5054693;28;20057;-57
2024/03/06 08:00:19;;;;;;;6.95;5.55;;;;;;;;;;5053918;28;20546;-55
2024/03/06 08:03:02;;;;;;;6.82;6.22;;;;;;;;;;5054164;28;20036;-58
2024/03/06 08:05:33;;;;;;;7.50;6.70;;;;;;;;;;5054009;28;20028;-58
2024/03/06 08:07:59;;;;;;;9.43;7.90;;;;;;;;;;5054305;28;20367;-58
2024/03/06 08:10:25;;;;;;;8.35;6.97;;;;;;;;;;5054479;28;20036;-57
2024/03/06 08:12:51;;;;;;;9.63;8.00;;;;;;;;;;5054418;28;20406;-58
2024/03/06 08:15:17;;;;;;;11.13;7.30;;;;;;;;;;5053516;28;20459;-56
2024/03/06 08:17:43;;;;;;;12.63;7.38;;;;;;;;;;5054464;28;20036;-57
2024/03/06 08:20:11;;;;;;;8.18;7.28;;;;;;;;;;5054754;28;20032;-56
2024/03/06 08:22:38;;;;;;;14.57;8.20;;;;;;;;;;5053771;28;20526;-56
2024/03/06 08:25:08;;;;;;;14.13;8.55;;;;;;;;;;5054245;28;20036;-58
2024/03/06 08:27:35;;;;;;;10.15;6.88;;;;;;;;;;5054035;28;20455;-57
2024/03/06 08:30:01;;;;;;;9.50;6.95;;;;;;;;;;5053936;28;20025;-58
2024/03/06 08:32:27;;;;;;;8.45;6.32;;;;;;;;;;5054499;28;20052;-57
2024/03/06 08:34:53;;;;;;;7.35;6.55;;;;;;;;;;5054549;28;20368;-57
2024/03/06 08:37:19;;;;;;;7.20;6.50;;;;;;;;;;5053708;28;20017;-57
2024/03/06 08:39:45;;;;;;;8.32;6.30;;;;;;;;;;5054467;28;20036;-58
2024/03/06 08:42:12;;;;;;;11.52;7.55;;;;;;;;;;5053836;28;20481;-58
2024/03/06 08:44:38;;;;;;;9.02;6.55;;;;;;;;;;5053474;28;20057;-56
2024/03/06 08:47:04;;;;;;;14.82;7.20;;;;;;;;;;5053797;28;20541;-56
2024/03/06 08:49:30;;;;;;;10.70;6.88;;;;;;;;;;5053720;28;20375;-56
2024/03/06 08:51:57;;;;;;;7.93;5.93;;;;;;;;;;5054027;28;20104;-57
2024/03/06 08:54:22;;;;;;;6.68;5.18;;;;;;;;;;5053983;28;20021;-58
2024/03/06 08:56:48;;;;;;;9.15;6.88;;;;;;;;;;5053971;28;20053;-54
2024/03/06 08:59:14;;;;;;;9.32;7.13;;;;;;;;;;5053408;28;20463;-57
2024/03/06 09:01:40;;;;;;;9.10;5.93;;;;;;;;;;5053984;28;20021;-57
2024/03/06 09:04:07;;;;;;;9.13;7.03;;;;;;;;;;5053492;28;20029;-56
2024/03/06 09:06:33;;;;;;;9.07;6.85;;;;;;;;;;5054188;28;20032;-55
2024/03/06 09:08:59;;;;;;;10.30;7.05;;;;;;;;;;5057022;28;20032;-57
2024/03/06 09:11:24;;;;;;;10.00;7.57;;;;;;;;;;5057500;28;20025;-56
2024/03/06 09:13:50;;;;;;;8.00;5.47;;;;;;;;;;5057321;28;20021;-57
2024/03/06 09:16:18;;;;;;;8.05;6.85;;;;;;;;;;5057849;28;20025;-57
2024/03/06 09:18:44;;;;;;;7.95;6.97;;;;;;;;;;5057615;28;20033;-57
2024/03/06 09:21:10;;;;;;;7.93;6.28;;;;;;;;;;5057755;28;20459;-56
2024/03/06 09:23:35;;;;;;;9.43;7.95;;;;;;;;;;5057919;28;20239;-54
2024/03/06 09:26:01;;;;;;;7.97;6.85;;;;;;;;;;5057350;28;20040;-57
2024/03/06 09:28:27;;;;;;;7.95;7.03;;;;;;;;;;5057184;28;20035;-56
2024/03/06 09:30:53;;;;;;;11.68;8.02;;;;;;;;;;5056946;28;20072;-56
2024/03/06 09:33:20;;;;;;;9.55;8.00;;;;;;;;;;5056970;28;20021;-57
2024/03/06 09:35:46;;;;;;;10.13;7.60;;;;;;;;;;5057248;28;20378;-57
2024/03/06 09:38:14;;;;;;;11.43;7.75;;;;;;;;;;5057779;28;20064;-57
2024/03/06 09:40:43;;;;;;;8.18;7.20;;;;;;;;;;5057482;28;20025;-56
2024/03/06 09:43:09;;;;;;;8.65;7.70;;;;;;;;;;5056718;28;20025;-57
2024/03/06 09:45:36;;;;;;;8.85;7.35;;;;;;;;;;5057123;28;20033;-57
2024/03/06 09:48:02;;;;;;;7.60;6.53;;;;;;;;;;5057407;28;20067;-57
2024/03/06 09:50:29;;;;;;;8.27;6.95;;;;;;;;;;5057505;28;20029;-58
2024/03/06 09:52:56;;;;;;;7.55;6.75;;;;;;;;;;5057418;28;20060;-58
2024/03/06 09:55:22;;;;;;;8.93;7.38;;;;;;;;;;5057454;28;20029;-55
2024/03/06 09:57:48;;;;;;;10.73;7.75;;;;;;;;;;5057327;28;20056;-58
2024/03/06 10:00:14;;;;;;;7.75;6.82;;;;;;;;;;5056955;28;20116;-58
2024/03/06 10:02:59;;;;;;;11.45;8.52;;;;;;;;;;5056953;28;20028;-56
2024/03/06 10:05:26;;;;;;;11.82;8.30;;;;;;;;;;5056907;28;20041;-57
2024/03/06 10:07:53;;;;;;;13.10;8.75;;;;;;;;;;5056370;28;20375;-57
2024/03/06 10:10:20;;;;;;;9.15;8.20;;;;;;;;;;5056234;28;20025;-57
2024/03/06 10:12:47;;;;;;;10.95;8.85;;;;;;;;;;5056722;28;20450;-58
2024/03/06 10:15:13;;;;;;;11.88;10.40;;;;;;;;;;5055548;28;20025;-58
2024/03/06 10:17:39;;;;;;;14.48;9.57;;;;;;;;;;5056171;28;20452;-58
2024/03/06 10:20:28;;;;;;;13.63;10.50;;;;;;;;;;5056715;28;20032;-56
2024/03/06 10:22:54;;;;;;;11.60;10.40;;;;;;;;;;5056886;28;20433;-57
2024/03/06 10:25:21;;;;;;;12.95;9.70;;;;;;;;;;5055961;28;20361;-57
2024/03/06 10:27:47;;;;;;;12.38;10.02;;;;;;;;;;5056071;28;20064;-56
2024/03/06 10:30:14;;;;;;;13.30;10.38;;;;;;;;;;5056460;28;20079;-57
2024/03/06 10:32:41;;;;;;;11.05;9.95;;;;;;;;;;5055821;28;20033;-57
2024/03/06 10:35:07;;;;;;;14.07;10.90;;;;;;;;;;5055786;28;20055;-57
2024/03/06 10:37:34;;;;;;;11.15;9.80;;;;;;;;;;5055559;28;20036;-57
2024/03/06 10:40:12;;;;;;;15.63;12.38;;;;;;;;;;5055476;28;20496;-56
2024/03/06 10:42:38;;;;;;;15.90;10.60;;;;;;;;;;5056010;28;20053;-56
2024/03/06 10:45:05;;;;;;;12.68;11.32;;;;;;;;;;5055442;28;20060;-57
2024/03/06 10:47:31;;;;;;;13.05;10.95;;;;;;;;;;5055381;28;20111;-58
2024/03/06 10:50:00;;;;;;;11.48;10.35;;;;;;;;;;5055652;28;20468;-57
2024/03/06 10:52:27;;;;;;;13.60;11.52;;;;;;;;;;5056034;28;20033;-57
2024/03/06 10:54:58;;;;;;;13.23;11.80;;;;;;;;;;5055705;28;20478;-58
2024/03/06 10:57:24;;;;;;;13.55;11.82;;;;;;;;;;5055558;28;20048;-58
2024/03/06 10:59:50;;;;;;;13.73;12.32;;;;;;;;;;5055343;28;20375;-57
2024/03/06 11:02:17;;;;;;;15.57;12.82;;;;;;;;;;5055386;28;20488;-57
2024/03/06 11:04:43;;;;;;;16.27;13.70;;;;;;;;;;5055197;28;20382;-58
2024/03/06 11:07:09;;;;;;;16.45;14.00;;;;;;;;;;5054027;28;20036;-57
2024/03/06 11:09:36;;;;;;;17.70;13.70;;;;;;;;;;5055472;28;20556;-57
2024/03/06 11:12:02;;;;;;;15.98;14.27;;;;;;;;;;5055622;28;20025;-57
2024/03/06 11:14:31;;;;;;;15.68;13.65;;;;;;;;;;5055326;28;20444;-57
2024/03/06 11:17:04;;;;;;;16.63;14.07;;;;;;;;;;5054935;28;20161;-56
2024/03/06 11:19:33;;;;;;;16.90;14.93;;;;;;;;;;5055483;28;20033;-56
2024/03/06 11:21:59;;;;;;;17.48;14.60;;;;;;;;;;5055398;28;20025;-54
2024/03/06 11:24:34;;;;;;;15.88;14.32;;;;;;;;;;5055624;28;20029;-55
2024/03/06 11:27:07;;;;;;;15.40;13.75;;;;;;;;;;5054756;28;20107;-56
2024/03/06 11:29:51;;;;;;;16.85;13.38;;;;;;;;;;5054969;28;20073;-56
2024/03/06 11:32:18;;;;;;;13.75;12.32;;;;;;;;;;5054969;28;20043;-57
2024/03/06 11:34:44;;;;;;;17.20;15.32;;;;;;;;;;5054602;28;20036;-57
2024/03/06 11:37:10;;;;;;;20.05;14.95;;;;;;;;;;5054606;28;20025;-57
2024/03/06 11:39:36;;;;;;;18.13;14.88;;;;;;;;;;5054525;28;20025;-57
2024/03/06 11:42:04;;;;;;;16.60;14.40;;;;;;;;;;5054461;28;20029;-57
2024/03/06 11:44:32;;;;;;;21.17;16.20;;;;;;;;;;5054491;28;20128;-57
2024/03/06 11:47:03;;;;;;;16.55;14.43;;;;;;;;;;5054920;28;20048;-57
2024/03/06 11:49:31;;;;;;;17.42;14.75;;;;;;;;;;5054832;28;20115;-56
2024/03/06 11:51:58;;;;;;;16.40;14.70;;;;;;;;;;5054374;28;20036;-56
2024/03/06 11:54:29;;;;;;;16.33;14.82;;;;;;;;;;5054558;28;20020;-57
2024/03/06 11:56:58;;;;;;;19.20;15.10;;;;;;;;;;5055072;28;20355;-58
2024/03/06 11:59:25;;;;;;;18.80;16.08;;;;;;;;;;5054186;28;20036;-57
2024/03/06 12:01:52;;;;;;;18.02;16.15;;;;;;;;;;5054469;28;20017;-57
2024/03/06 12:04:19;;;;;;;19.00;16.33;;;;;;;;;;5054354;28;20482;-57
2024/03/06 12:06:45;;;;;;;20.80;18.05;;;;;;;;;;5054490;28;20032;-57
2024/03/06 12:09:11;;;;;;;17.25;15.35;;;;;;;;;;5054006;28;20376;-57
2024/03/06 12:11:37;;;;;;;19.83;15.43;;;;;;;;;;5053922;28;20514;-56
2024/03/06 12:14:03;;;;;;;18.35;16.35;;;;;;;;;;5054585;28;20106;-56
2024/03/06 12:16:29;;;;;;;20.20;17.40;;;;;;;;;;5053734;28;20390;-57
2024/03/06 12:18:59;;;;;;;18.83;16.40;;;;;;;;;;5054476;28;20078;-57
2024/03/06 12:21:34;;;;;;;19.52;17.52;;;;;;;;;;5053908;28;20067;-56
2024/03/06 12:24:04;;;;;;;21.20;15.25;;;;;;;;;;5053800;28;20119;-57
2024/03/06 12:26:30;;;;;;;18.73;16.20;;;;;;;;;;5053985;28;20040;-57
2024/03/06 12:29:05;;;;;;;20.25;17.92;;;;;;;;;;5054316;28;20347;-57
2024/03/06 12:31:31;;;;;;;19.67;16.27;;;;;;;;;;5054075;28;20100;-55
2024/03/06 12:33:58;;;;;;;22.70;18.30;;;;;;;;;;5054278;28;20033;-57
2024/03/06 12:36:25;;;;;;;22.35;19.10;;;;;;;;;;5053426;28;20033;-57
2024/03/06 12:38:55;;;;;;;23.88;18.23;;;;;;;;;;5054280;28;20017;-57
2024/03/06 12:41:21;;;;;;;20.02;17.23;;;;;;;;;;5053585;28;20053;-57
2024/03/06 12:43:47;;;;;;;20.63;18.40;;;;;;;;;;5053470;28;20032;-55
2024/03/06 12:46:13;;;;;;;21.90;16.67;;;;;;;;;;5053656;28;20036;-56
2024/03/06 12:48:39;;;;;;;22.65;17.33;;;;;;;;;;5053627;28;20375;-56
2024/03/06 12:51:05;;;;;;;18.27;16.27;;;;;;;;;;5054115;28;20354;-58
2024/03/06 12:53:32;;;;;;;18.95;16.10;;;;;;;;;;5053559;28;20107;-57
2024/03/06 12:55:58;;;;;;;18.65;16.70;;;;;;;;;;5053741;28;20091;-58
2024/03/06 12:58:24;;;;;;;23.88;19.10;;;;;;;;;;5053576;28;20029;-57
2024/03/06 13:00:52;;;;;;;22.73;16.85;;;;;;;;;;5053159;28;20025;-57
2024/03/06 13:03:18;;;;;;;19.77;17.17;;;;;;;;;;5052545;28;20036;-57
2024/03/06 13:05:44;;;;;;;21.60;17.58;;;;;;;;;;5052267;28;20112;-57
2024/03/06 13:08:13;;;;;;;21.00;17.23;;;;;;;;;;5053189;28;20025;-57
2024/03/06 13:10:39;;;;;;;22.85;18.52;;;;;;;;;;5052574;28;20075;-57
2024/03/06 13:13:06;;;;;;;20.63;17.25;;;;;;;;;;5052303;28;20025;-57
2024/03/06 13:15:33;;;;;;;23.67;19.45;;;;;;;;;;5053015;28;20033;-57
2024/03/06 13:18:00;;;;;;;19.45;17.30;;;;;;;;;;5052479;28;20025;-56
2024/03/06 13:20:27;;;;;;;20.48;18.38;;;;;;;;;;5052765;28;20044;-56
2024/03/06 13:22:54;;;;;;;21.60;16.90;;;;;;;;;;5052428;28;20025;-57
2024/03/06 13:25:20;;;;;;;25.58;19.98;;;;;;;;;;5052811;28;20029;-57
2024/03/06 13:27:46;;;;;;;20.20;17.73;;;;;;;;;;5052608;28;20035;-56
2024/03/06 13:30:12;;;;;;;23.98;18.20;;;;;;;;;;5052502;28;20505;-56
2024/03/06 13:32:38;;;;;;;23.13;18.42;;;;;;;;;;5052292;28;20025;-57
2024/03/06 13:35:11;;;;;;;20.48;18.27;;;;;;;;;;5052756;28;20025;-56
2024/03/06 13:37:37;;;;;;;20.58;18.40;;;;;;;;;;5052733;28;20029;-57
2024/03/06 13:40:07;;;;;;;25.52;20.27;;;;;;;;;;5052710;28;20040;-57
2024/03/06 13:42:32;;;;;;;20.45;18.10;;;;;;;;;;5052375;28;20124;-57
2024/03/06 13:44:58;;;;;;;23.02;17.80;;;;;;;;;;5052648;28;20061;-57
2024/03/06 13:47:25;;;;;;;22.83;17.88;;;;;;;;;;5052154;28;20513;-57
2024/03/06 13:49:51;;;;;;;19.35;16.92;;;;;;;;;;5052454;28;20036;-57
2024/03/06 13:52:20;;;;;;;21.20;17.70;;;;;;;;;;5052304;28;20021;-55
2024/03/06 13:54:46;;;;;;;20.13;17.15;;;;;;;;;;5054221;28;20029;-56
2024/03/06 13:57:12;;;;;;;19.30;17.38;;;;;;;;;;5019402;28;1046875;-56
2024/03/06 13:59:38;;;;;;;20.65;17.98;;;;;;;;;;5056919;28;20021;-57
2024/03/06 14:02:05;;;;;;;21.85;17.40;;;;;;;;;;5056439;28;20072;-57
2024/03/06 14:04:30;;;;;;;17.85;15.98;;;;;;;;;;5056907;28;20451;-57
2024/03/06 14:06:59;;;;;;;20.02;17.80;;;;;;;;;;5056636;28;20036;-57
2024/03/06 14:09:26;;;;;;;19.65;17.60;;;;;;;;;;5056761;28;20421;-57
2024/03/06 14:11:52;;;;;;;18.50;16.63;;;;;;;;;;5056854;28;20057;-57
2024/03/06 14:14:19;;;;;;;18.77;15.85;;;;;;;;;;5056292;28;20032;-57
2024/03/06 14:16:45;;;;;;;19.08;16.45;;;;;;;;;;5056195;28;20025;-58
2024/03/06 14:19:11;;;;;;;20.85;16.80;;;;;;;;;;5056987;28;20025;-57
2024/03/06 14:21:37;;;;;;;18.83;16.83;;;;;;;;;;5056186;28;20095;-57
2024/03/06 14:24:03;;;;;;;21.10;16.63;;;;;;;;;;5056640;28;20089;-57
2024/03/06 14:26:30;;;;;;;17.95;16.20;;;;;;;;;;5055988;28;20091;-57
2024/03/06 14:28:57;;;;;;;22.05;18.02;;;;;;;;;;5056443;28;20464;-57
2024/03/06 14:31:22;;;;;;;18.85;16.70;;;;;;;;;;5056572;28;20436;-57